Time;durP1;ratioP1;P1;durP2;ratioP2;P2;SDS_P1;SDS_P2;PMS_P1;PMS_P2;Temp;Humidity;BMP_temperature;BMP_pressure;BME280_temperature;BME280_humidity;BME280_pressure;Samples;Min_cycle;Max_cycle;Signal;HPM_P1;HPM_P2
2022/11/25 00:00:28;;;;;;;1999.90;999.90;;;12.50;99.90;;;;;;5071218;28;20032;-76
2022/11/25 00:03:35;;;;;;;1999.90;999.90;;;12.50;99.90;;;;;;5070283;28;20045;-77
2022/11/25 00:06:15;;;;;;;1999.90;999.90;;;12.50;99.90;;;;;;5070383;28;20091;-76
2022/11/25 00:08:57;;;;;;;1999.90;999.90;;;12.40;99.90;;;;;;5071454;28;20035;-77
2022/11/25 00:11:57;;;;;;;1999.90;999.90;;;12.40;99.90;;;;;;5069542;28;20519;-77
2022/11/25 00:14:39;;;;;;;1999.90;999.90;;;12.40;99.90;;;;;;5070700;28;20183;-77
2022/11/25 00:17:33;;;;;;;1999.90;999.90;;;12.40;99.90;;;;;;5070430;28;20028;-76
2022/11/25 00:20:29;;;;;;;1999.90;999.90;;;12.40;99.90;;;;;;5070749;28;20509;-76
2022/11/25 00:23:05;;;;;;;1999.90;999.90;;;12.40;99.90;;;;;;5067412;28;20025;-76
2022/11/25 00:25:58;;;;;;;1999.90;999.90;;;12.40;99.90;;;;;;5067522;28;20024;-76
2022/11/25 00:28:48;;;;;;;1999.90;999.90;;;12.30;99.90;;;;;;5066578;28;20041;-77
2022/11/25 00:31:28;;;;;;;1999.90;999.90;;;12.40;99.90;;;;;;5067415;28;20486;-77
2022/11/25 00:34:11;;;;;;;1999.90;999.90;;;12.40;99.90;;;;;;5066353;28;20044;-76
2022/11/25 00:36:37;;;;;;;1999.90;999.90;;;12.30;99.90;;;;;;5067973;28;20061;-76
2022/11/25 00:39:08;;;;;;;1999.90;999.90;;;12.20;99.90;;;;;;5067570;28;20078;-76
2022/11/25 00:44:34;;;;;;;1999.90;999.90;;;12.30;99.90;;;;;;5052549;28;20425;-76
2022/11/25 00:47:04;;;;;;;1999.90;999.90;;;12.20;99.90;;;;;;5067646;28;20032;-76
2022/11/25 00:49:30;;;;;;;1999.90;999.90;;;12.20;99.90;;;;;;5067324;28;20031;-76
2022/11/25 00:51:56;;;;;;;1999.90;999.90;;;12.20;99.90;;;;;;5067354;28;20033;-77
2022/11/25 00:54:22;;;;;;;1999.90;999.90;;;12.30;99.90;;;;;;5071155;28;20036;-77
2022/11/25 00:57:14;;;;;;;1999.90;999.90;;;12.20;99.90;;;;;;5071929;28;20032;-76
2022/11/25 01:00:16;;;;;;;1999.90;999.90;;;12.20;99.90;;;;;;5071650;28;20043;-76
2022/11/25 01:03:02;;;;;;;1999.90;999.90;;;12.20;99.90;;;;;;5073289;28;20384;-77
2022/11/25 01:05:56;;;;;;;1999.90;999.90;;;12.00;99.90;;;;;;5076293;28;20521;-77
2022/11/25 01:08:46;;;;;;;1999.90;999.90;;;12.00;99.90;;;;;;5074444;28;20028;-77
2022/11/25 01:11:38;;;;;;;1999.90;999.90;;;12.00;99.90;;;;;;5074194;28;20024;-77
2022/11/25 01:14:20;;;;;;;1999.90;999.90;;;12.00;99.90;;;;;;5074396;28;20024;-76
2022/11/25 01:16:46;;;;;;;1999.90;999.90;;;12.00;99.90;;;;;;5073949;28;20031;-76
2022/11/25 01:19:25;;;;;;;1999.90;999.90;;;12.10;99.90;;;;;;5074526;28;20479;-76
2022/11/25 01:22:04;;;;;;;1999.90;999.90;;;12.20;99.90;;;;;;5074216;28;20031;-76
2022/11/25 01:24:30;;;;;;;1999.90;999.90;;;12.40;99.90;;;;;;5055452;28;20037;-76
2022/11/25 01:26:59;;;;;;;1999.90;999.90;;;12.40;99.90;;;;;;5054587;28;20028;-76
2022/11/25 01:29:52;;;;;;;1999.90;999.90;;;12.40;99.90;;;;;;5087837;28;20449;-76
2022/11/25 01:32:28;;;;;;;1999.90;999.90;;;12.30;99.90;;;;;;5053307;28;20029;-76
2022/11/25 01:34:58;;;;;;;1999.90;999.90;;;12.20;99.90;;;;;;5054445;28;20045;-76
2022/11/25 01:37:36;;;;;;;1999.90;999.90;;;12.10;99.90;;;;;;5053915;28;20396;-76
2022/11/25 01:40:02;;;;;;;1999.90;999.90;;;12.00;99.90;;;;;;5053790;28;20021;-73
2022/11/25 01:42:29;;;;;;;1999.90;999.90;;;12.10;99.90;;;;;;5055095;28;20045;-73
2022/11/25 01:45:23;;;;;;;1999.90;999.90;;;12.30;99.90;;;;;;5076537;28;20031;-77
2022/11/25 01:47:50;;;;;;;1999.90;999.90;;;12.30;99.90;;;;;;5095250;28;20024;-77
2022/11/25 01:50:20;;;;;;;1999.90;999.90;;;12.20;99.90;;;;;;5095699;28;20161;-77
2022/11/25 01:52:48;;;;;;;1999.90;999.90;;;12.20;99.90;;;;;;5095400;28;20487;-75
2022/11/25 01:55:21;;;;;;;1999.90;999.90;;;12.20;99.90;;;;;;5093801;28;20020;-75
2022/11/25 01:57:49;;;;;;;1999.90;999.90;;;12.30;99.90;;;;;;5093393;28;20395;-76
2022/11/25 02:00:15;;;;;;;1999.90;999.90;;;12.30;99.90;;;;;;5093840;28;20052;-76
2022/11/25 02:02:42;;;;;;;1999.90;999.90;;;12.30;99.90;;;;;;5075412;28;20067;-76
2022/11/25 02:05:48;;;;;;;1999.90;999.90;;;12.40;99.90;;;;;;5072971;28;20028;-76
2022/11/25 02:08:21;;;;;;;1999.90;999.90;;;12.40;99.90;;;;;;5073223;28;20041;-76
2022/11/25 02:11:12;;;;;;;1999.90;999.90;;;12.40;99.90;;;;;;5073454;28;20048;-76
2022/11/25 02:14:06;;;;;;;1999.90;999.90;;;12.30;99.90;;;;;;5053263;28;20108;-76
2022/11/25 02:16:45;;;;;;;1999.90;999.90;;;12.20;99.90;;;;;;5052907;28;20037;-76
2022/11/25 02:19:47;;;;;;;1999.90;999.90;;;12.10;99.90;;;;;;5053850;28;20028;-76
2022/11/25 02:22:22;;;;;;;1999.90;999.90;;;12.00;99.90;;;;;;5055656;28;20037;-77
2022/11/25 02:24:54;;;;;;;1999.90;999.90;;;11.90;99.90;;;;;;5086532;28;20025;-76
2022/11/25 02:27:20;;;;;;;1999.90;999.90;;;11.90;99.90;;;;;;5086964;28;20513;-76
2022/11/25 02:29:47;;;;;;;1999.90;999.90;;;11.90;99.90;;;;;;5054192;28;20020;-77
2022/11/25 02:32:13;;;;;;;1999.90;999.90;;;11.90;99.90;;;;;;5053366;28;20174;-76
2022/11/25 02:34:46;;;;;;;1999.90;999.90;;;11.80;99.90;;;;;;5070181;28;20450;-76
2022/11/25 02:37:13;;;;;;;1999.90;999.90;;;11.80;99.90;;;;;;5053174;28;20507;-76
2022/11/25 02:39:39;;;;;;;1999.90;999.90;;;11.80;99.90;;;;;;5086194;28;20017;-76
2022/11/25 02:42:05;;;;;;;1999.90;999.90;;;11.80;99.90;;;;;;5069238;28;20056;-76
2022/11/25 02:44:31;;;;;;;1999.90;999.90;;;11.90;99.90;;;;;;5068298;28;20032;-76
2022/11/25 02:46:57;;;;;;;1999.90;999.90;;;12.00;99.90;;;;;;5127372;27;20042;-76
2022/11/25 02:49:36;;;;;;;1999.90;999.90;;;12.00;99.90;;;;;;5093137;28;20120;-76
2022/11/25 02:52:05;;;;;;;1999.90;999.90;;;12.10;99.90;;;;;;5092993;28;20044;-77
2022/11/25 02:54:30;;;;;;;1999.90;999.90;;;12.10;99.90;;;;;;5094100;28;20532;-77
2022/11/25 02:56:56;;;;;;;1999.90;999.90;;;12.10;99.90;;;;;;5094477;28;20063;-75
2022/11/25 02:59:22;;;;;;;1999.90;999.90;;;12.00;99.90;;;;;;5092769;28;20032;-76
2022/11/25 03:01:47;;;;;;;1999.90;999.90;;;12.00;99.90;;;;;;5122794;27;20028;-76
2022/11/25 03:04:13;;;;;;;1999.90;999.90;;;12.00;99.90;;;;;;5072691;28;20052;-76
2022/11/25 03:06:45;;;;;;;1999.90;999.90;;;12.00;99.90;;;;;;5072774;28;20414;-77
2022/11/25 03:09:11;;;;;;;1999.90;999.90;;;12.00;99.90;;;;;;5072162;28;20029;-76
2022/11/25 03:14:20;;;;;;;1999.90;999.90;;;12.00;99.90;;;;;;5073898;28;20507;-76
2022/11/25 03:16:46;;;;;;;1999.90;999.90;;;11.90;99.90;;;;;;5071937;28;20028;-76
2022/11/25 03:19:12;;;;;;;1999.90;999.90;;;11.90;99.90;;;;;;5073780;28;20585;-77
2022/11/25 03:21:37;;;;;;;1999.90;999.90;;;11.90;99.90;;;;;;5072314;28;20398;-76
2022/11/25 03:24:03;;;;;;;1999.90;999.90;;;11.90;99.90;;;;;;5056131;28;20434;-76
2022/11/25 03:26:29;;;;;;;1999.90;999.90;;;11.90;99.90;;;;;;5068899;28;20548;-76
2022/11/25 03:28:54;;;;;;;1999.90;999.90;;;11.80;99.90;;;;;;5085905;28;20029;-76
2022/11/25 03:31:20;;;;;;;1999.90;999.90;;;11.70;99.90;;;;;;5068559;28;20056;-77
2022/11/25 03:33:46;;;;;;;1999.90;999.90;;;11.90;99.90;;;;;;5068682;28;20415;-76
2022/11/25 03:36:11;;;;;;;1999.90;999.90;;;11.90;99.90;;;;;;5051986;28;20474;-75
2022/11/25 03:38:37;;;;;;;1999.90;999.90;;;11.90;99.90;;;;;;5085532;28;20025;-76
2022/11/25 03:41:03;;;;;;;1999.90;999.90;;;11.90;99.90;;;;;;5053230;28;20482;-76
2022/11/25 03:43:29;;;;;;;1999.90;999.90;;;11.90;99.90;;;;;;5052121;28;20028;-76
2022/11/25 03:45:54;;;;;;;1999.90;999.90;;;11.80;99.90;;;;;;5071557;28;20028;-76
2022/11/25 03:48:20;;;;;;;1999.90;999.90;;;11.80;99.90;;;;;;5073316;28;20472;-76
2022/11/25 03:50:47;;;;;;;1999.90;999.90;;;11.80;99.90;;;;;;5071936;28;20025;-76
2022/11/25 03:53:13;;;;;;;1999.90;999.90;;;11.70;99.90;;;;;;5071452;28;20032;-77
2022/11/25 03:55:38;;;;;;;1999.90;999.90;;;11.80;99.90;;;;;;5073019;28;20100;-77
2022/11/25 03:58:04;;;;;;;1999.90;999.90;;;11.80;99.90;;;;;;5071657;28;20052;-77
2022/11/25 04:00:32;;;;;;;1999.90;999.90;;;11.80;99.90;;;;;;5073194;28;20104;-77
2022/11/25 04:03:10;;;;;;;1999.90;999.90;;;11.80;99.90;;;;;;5070990;28;20048;-76
2022/11/25 04:05:36;;;;;;;1999.90;999.90;;;11.80;99.90;;;;;;5071218;28;20029;-76
2022/11/25 04:08:02;;;;;;;1999.90;999.90;;;11.80;99.90;;;;;;5071372;28;20039;-76
2022/11/25 04:10:28;;;;;;;1999.90;999.90;;;11.70;99.90;;;;;;5071377;28;20522;-76
2022/11/25 04:12:54;;;;;;;1999.90;999.90;;;11.70;99.90;;;;;;5070721;28;20029;-76
2022/11/25 04:15:20;;;;;;;1999.90;999.90;;;11.70;99.90;;;;;;5072538;28;20062;-75
2022/11/25 04:17:46;;;;;;;1999.90;999.90;;;11.70;99.90;;;;;;5070515;28;20032;-75
2022/11/25 04:20:14;;;;;;;1999.90;999.90;;;11.70;99.90;;;;;;5070754;28;20037;-76
2022/11/25 04:22:51;;;;;;;1999.90;999.90;;;11.60;99.90;;;;;;5067014;28;20032;-76
2022/11/25 04:25:17;;;;;;;1999.90;999.90;;;11.50;99.90;;;;;;5084075;28;20029;-76
2022/11/25 04:27:43;;;;;;;1999.90;999.90;;;11.40;99.90;;;;;;5051144;28;20039;-76
2022/11/25 04:30:10;;;;;;;1999.90;999.90;;;11.50;99.90;;;;;;5052295;28;20492;-76
2022/11/25 04:32:37;;;;;;;1999.90;999.90;;;11.50;99.90;;;;;;5084925;28;20453;-76
2022/11/25 04:35:03;;;;;;;1999.90;999.90;;;11.60;99.90;;;;;;5084646;28;20063;-76
2022/11/25 04:37:29;;;;;;;1999.90;999.90;;;11.70;99.90;;;;;;5052539;28;20029;-76
2022/11/25 04:39:54;;;;;;;1999.90;999.90;;;11.80;99.90;;;;;;5051683;28;20036;-76
2022/11/25 04:42:33;;;;;;;1999.90;999.90;;;11.60;99.90;;;;;;5052189;28;20033;-77
2022/11/25 04:45:01;;;;;;;1999.90;999.90;;;11.50;99.90;;;;;;5061126;28;20036;-75
2022/11/25 04:47:28;;;;;;;1999.90;999.90;;;11.40;99.90;;;;;;5072485;28;20257;-77
2022/11/25 04:49:54;;;;;;;1999.90;999.90;;;11.30;99.90;;;;;;5072005;28;20017;-76
2022/11/25 04:52:30;;;;;;;1999.90;999.90;;;11.30;99.90;;;;;;5070372;28;20032;-76
2022/11/25 04:54:55;;;;;;;1999.90;999.90;;;11.30;99.90;;;;;;5072141;28;20016;-76
2022/11/25 04:57:24;;;;;;;1999.90;999.90;;;11.20;99.90;;;;;;5072280;28;20491;-75
2022/11/25 04:59:50;;;;;;;1999.90;999.90;;;11.10;99.90;;;;;;5070696;28;20020;-76
2022/11/25 05:02:27;;;;;;;1999.90;999.90;;;11.00;99.90;;;;;;5070653;28;20161;-77
2022/11/25 05:05:16;;;;;;;1999.90;999.90;;;11.00;99.90;;;;;;5072135;28;20507;-77
2022/11/25 05:08:05;;;;;;;1999.90;999.90;;;10.90;99.90;;;;;;5070892;28;20054;-76
2022/11/25 05:10:31;;;;;;;1999.90;999.90;;;10.70;99.90;;;;;;5070585;28;20032;-75
2022/11/25 05:12:56;;;;;;;1999.90;999.90;;;10.70;99.90;;;;;;5070109;28;20544;-76
2022/11/25 05:15:22;;;;;;;1999.90;999.90;;;10.70;99.90;;;;;;5070489;28;20116;-76
2022/11/25 05:17:48;;;;;;;1999.90;999.90;;;10.60;99.90;;;;;;5072056;28;20029;-76
2022/11/25 05:20:14;;;;;;;1999.90;999.90;;;10.50;99.90;;;;;;5070849;28;20094;-76
2022/11/25 05:22:40;;;;;;;1999.90;999.90;;;10.40;99.90;;;;;;5065010;28;20025;-76
2022/11/25 05:25:19;;;;;;;1999.90;999.90;;;10.40;99.90;;;;;;5049440;28;20099;-76
2022/11/25 05:27:45;;;;;;;1999.90;999.90;;;10.30;99.90;;;;;;5050287;28;20033;-76
2022/11/25 05:30:12;;;;;;;1999.90;999.90;;;10.40;99.90;;;;;;5091342;28;20043;-76
2022/11/25 05:32:39;;;;;;;1999.90;999.90;;;10.40;99.90;;;;;;5072217;28;20497;-75
2022/11/25 05:35:05;;;;;;;1999.90;999.90;;;10.40;99.90;;;;;;5070255;28;20492;-76
2022/11/25 05:37:31;;;;;;;1999.90;999.90;;;10.30;99.90;;;;;;5071689;28;20399;-76
2022/11/25 05:40:09;;;;;;;1999.90;999.90;;;10.30;99.90;;;;;;5072418;28;20025;-76
2022/11/25 05:42:35;;;;;;;1999.90;999.90;;;10.30;99.90;;;;;;5074064;28;20047;-76
2022/11/25 05:45:01;;;;;;;1999.90;999.90;;;10.20;99.90;;;;;;5086169;28;20028;-76
2022/11/25 05:47:39;;;;;;;1999.90;999.90;;;10.10;99.90;;;;;;5128453;27;20127;-76
2022/11/25 05:50:10;;;;;;;1999.90;999.90;;;10.00;99.90;;;;;;5095444;28;20099;-75
2022/11/25 05:52:36;;;;;;;1999.90;999.90;;;9.90;99.90;;;;;;5094046;28;20407;-76
2022/11/25 05:55:14;;;;;;;1999.90;999.90;;;9.90;99.90;;;;;;5128343;27;20023;-76
2022/11/25 05:57:40;;;;;;;1999.90;999.90;;;9.80;99.90;;;;;;5094051;28;20032;-76
2022/11/25 06:00:07;;;;;;;1999.90;999.90;;;9.80;99.90;;;;;;5128154;27;20028;-75
2022/11/25 06:02:43;;;;;;;1999.90;999.90;;;9.70;99.90;;;;;;5084899;28;20071;-75
2022/11/25 06:05:09;;;;;;;1999.90;999.90;;;9.70;99.90;;;;;;5073557;28;20025;-76
2022/11/25 06:07:36;;;;;;;1999.90;999.90;;;9.70;99.90;;;;;;5073795;28;20066;-77
2022/11/25 06:10:12;;;;;;;1999.90;999.90;;;9.70;99.90;;;;;;5074534;28;20028;-76
2022/11/25 06:12:38;;;;;;;1999.90;999.90;;;9.80;99.90;;;;;;5073294;28;20395;-75
2022/11/25 06:15:04;;;;;;;1999.90;999.90;;;9.90;99.90;;;;;;5072986;28;20021;-75
2022/11/25 06:17:30;;;;;;;1999.90;999.90;;;9.90;99.90;;;;;;5074370;28;20048;-76
2022/11/25 06:19:56;;;;;;;1999.90;999.90;;;9.80;99.90;;;;;;5072875;28;20442;-76
2022/11/25 06:22:41;;;;;;;1999.90;999.90;;;9.80;99.90;;;;;;5069631;28;20141;-76
2022/11/25 06:25:22;;;;;;;1999.90;999.90;;;9.80;99.90;;;;;;5068921;28;20041;-76
2022/11/25 06:28:11;;;;;;;1999.90;999.90;;;9.70;99.90;;;;;;5069446;28;20033;-76
2022/11/25 06:30:40;;;;;;;1999.90;999.90;;;9.60;99.90;;;;;;5053266;28;20116;-75
2022/11/25 06:33:08;;;;;;;1999.90;999.90;;;9.50;99.90;;;;;;5069596;28;20472;-75
2022/11/25 06:35:51;;;;;;;1999.90;999.90;;;9.30;99.90;;;;;;5054442;28;20067;-76
2022/11/25 06:38:48;;;;;;;1999.90;999.90;;;9.20;99.90;;;;;;5071246;28;20116;-77
2022/11/25 06:41:38;;;;;;;1999.90;999.90;;;9.10;99.90;;;;;;5071889;28;20086;-76
2022/11/25 06:44:15;;;;;;;1999.90;999.90;;;9.10;99.90;;;;;;5073074;28;20145;-77
2022/11/25 06:46:51;;;;;;;1999.90;999.90;;;9.10;99.90;;;;;;5072286;28;20085;-76
2022/11/25 06:49:17;;;;;;;1999.90;999.90;;;9.10;99.90;;;;;;5086964;28;20036;-76
2022/11/25 06:51:42;;;;;;;1999.90;999.90;;;9.00;99.90;;;;;;5083958;28;20051;-75
2022/11/25 06:54:19;;;;;;;1999.90;999.90;;;9.00;99.90;;;;;;5072435;28;20076;-75
2022/11/25 06:56:57;;;;;;;1999.90;999.90;;;8.90;99.90;;;;;;5074192;28;20502;-75
2022/11/25 06:59:26;;;;;;;1999.90;999.90;;;8.90;99.90;;;;;;5087164;28;20139;-76
2022/11/25 07:01:53;;;;;;;1999.90;999.90;;;8.80;99.90;;;;;;5086932;28;20024;-76
2022/11/25 07:04:19;;;;;;;1999.90;999.90;;;8.70;99.90;;;;;;5072431;28;20056;-76
2022/11/25 07:06:45;;;;;;;1999.90;999.90;;;8.70;99.90;;;;;;5071891;28;20095;-75
2022/11/25 07:09:10;;;;;;;1999.90;999.90;;;8.80;99.90;;;;;;5071964;28;20471;-76
2022/11/25 07:11:38;;;;;;;1999.90;999.90;;;9.00;99.90;;;;;;5071665;28;20079;-77
2022/11/25 07:14:07;;;;;;;1999.90;999.90;;;9.30;99.90;;;;;;5064341;28;20028;-73
2022/11/25 07:16:35;;;;;;;1999.90;999.90;;;9.30;99.90;;;;;;5071200;28;20365;-73
2022/11/25 07:19:02;;;;;;;1999.90;999.90;;;9.30;99.90;;;;;;5072140;28;20522;-73
2022/11/25 07:21:29;;;;;;;1999.90;999.90;;;9.30;99.90;;;;;;5069197;28;20059;-73
2022/11/25 07:23:57;;;;;;;1999.90;999.90;;;9.30;99.90;;;;;;5071690;28;20099;-78
2022/11/25 07:26:26;;;;;;;1999.90;999.90;;;9.30;99.90;;;;;;5080743;28;20020;-78
2022/11/25 07:28:53;;;;;;;1999.90;999.90;;;9.20;99.90;;;;;;5073087;28;20131;-77
2022/11/25 07:31:24;;;;;;;1999.90;999.90;;;9.10;99.90;;;;;;5072103;28;20119;-72
2022/11/25 07:34:00;;;;;;;1999.90;999.90;;;9.30;99.90;;;;;;5072352;28;20063;-72
2022/11/25 07:36:27;;;;;;;1999.90;999.90;;;9.40;99.90;;;;;;5071074;28;20032;-78
2022/11/25 07:38:53;;;;;;;1999.90;999.90;;;9.40;99.90;;;;;;5064701;28;20104;-78
2022/11/25 07:41:22;;;;;;;1999.90;999.90;;;9.40;99.90;;;;;;5071382;28;20543;-77
2022/11/25 07:43:53;;;;;;;1999.90;999.90;;;9.30;99.90;;;;;;5073335;28;20029;-72
2022/11/25 07:46:33;;;;;;;1999.90;999.90;;;9.30;99.90;;;;;;5058355;28;20028;-72
2022/11/25 07:49:03;;;;;;;1999.90;999.90;;;9.20;99.90;;;;;;5071693;28;20031;-77
2022/11/25 07:51:29;;;;;;;1999.90;999.90;;;9.20;99.90;;;;;;5074488;28;20479;-77
2022/11/25 07:53:56;;;;;;;1999.90;999.90;;;9.20;99.90;;;;;;5070874;28;20048;-73
2022/11/25 07:56:22;;;;;;;1999.90;999.90;;;9.10;99.90;;;;;;5067390;28;20487;-73
2022/11/25 07:58:48;;;;;;;1999.90;999.90;;;9.00;99.90;;;;;;5065909;28;20024;-73
2022/11/25 08:01:16;;;;;;;1999.90;999.90;;;9.00;99.90;;;;;;5069916;28;20441;-77
2022/11/25 08:03:42;;;;;;;1999.90;999.90;;;8.90;99.90;;;;;;5076040;28;20055;-77
2022/11/25 08:06:11;;;;;;;1999.90;999.90;;;8.90;99.90;;;;;;5068062;28;20556;-73
2022/11/25 08:08:38;;;;;;;1999.90;999.90;;;8.90;99.90;;;;;;5068314;28;20570;-73
2022/11/25 08:11:15;;;;;;;1999.90;999.90;;;9.00;99.90;;;;;;5067937;28;20028;-73
2022/11/25 08:13:41;;;;;;;1999.90;999.90;;;9.00;99.90;;;;;;5066017;28;20032;-73
2022/11/25 08:16:08;;;;;;;1999.90;999.90;;;9.00;99.90;;;;;;5066375;28;20086;-77
2022/11/25 08:18:33;;;;;;;1999.90;999.90;;;9.00;99.90;;;;;;5065825;28;20032;-73
2022/11/25 08:21:04;;;;;;;1999.90;999.90;;;9.10;99.90;;;;;;5059906;28;20021;-77
2022/11/25 08:23:33;;;;;;;1999.90;999.90;;;9.30;99.90;;;;;;5059954;28;20422;-74
2022/11/25 08:26:07;;;;;;;1999.90;999.90;;;9.80;99.90;;;;;;5054532;28;20542;-73
2022/11/25 08:28:33;;;;;;;1999.90;999.90;;;10.30;99.90;;;;;;5063753;28;20028;-74
2022/11/25 08:31:10;;;;;;;1999.90;999.90;;;10.60;99.90;;;;;;5061696;28;20078;-78
2022/11/25 08:33:36;;;;;;;1999.90;999.90;;;10.70;99.90;;;;;;5067302;28;20024;-74
2022/11/25 08:36:02;;;;;;;1999.90;999.90;;;10.80;99.90;;;;;;5051369;28;20476;-74
2022/11/25 08:38:28;;;;;;;1999.90;999.90;;;11.00;99.90;;;;;;5057246;28;20376;-75
2022/11/25 08:40:54;;;;;;;1999.90;999.90;;;11.20;99.90;;;;;;5054900;28;20021;-75
2022/11/25 08:43:20;;;;;;;1999.90;999.90;;;11.30;99.90;;;;;;5055379;28;20434;-75
2022/11/25 08:45:49;;;;;;;1999.90;999.90;;;11.40;99.90;;;;;;5067052;28;20047;-77
2022/11/25 08:48:18;;;;;;;1999.90;999.90;;;11.60;99.90;;;;;;5062137;28;20032;-75
2022/11/25 08:50:48;;;;;;;1999.90;999.90;;;11.80;99.90;;;;;;5057996;28;20021;-75
2022/11/25 08:53:14;;;;;;;1999.90;999.90;;;12.00;99.90;;;;;;5052722;28;20503;-75
2022/11/25 08:55:40;;;;;;;1999.90;999.90;;;12.00;99.90;;;;;;5069970;28;20038;-76
2022/11/25 08:58:09;;;;;;;1999.90;999.90;;;12.10;99.90;;;;;;5067077;28;20115;-77
2022/11/25 09:00:36;;;;;;;1999.90;999.90;;;12.10;99.90;;;;;;5061551;28;20035;-75
2022/11/25 09:03:01;;;;;;;1999.90;999.90;;;12.00;99.90;;;;;;5073297;28;20083;-76
2022/11/25 09:05:28;;;;;;;1999.90;999.90;;;11.90;99.90;;;;;;5063073;28;20503;-76
2022/11/25 09:07:54;;;;;;;1999.90;999.90;;;11.90;99.90;;;;;;5061088;28;20491;-77
2022/11/25 09:10:20;;;;;;;1999.90;999.90;;;11.90;99.90;;;;;;5067010;28;20020;-77
2022/11/25 09:12:46;;;;;;;1999.90;999.90;;;12.00;99.90;;;;;;5068099;28;20074;-75
2022/11/25 09:15:11;;;;;;;1999.90;999.90;;;12.10;99.90;;;;;;5079520;28;20025;-75
2022/11/25 09:17:37;;;;;;;1999.90;999.90;;;12.10;99.90;;;;;;5071581;28;20106;-75
2022/11/25 09:20:04;;;;;;;1999.90;999.90;;;12.00;99.90;;;;;;5066832;28;20484;-75
2022/11/25 09:22:31;;;;;;;1999.90;999.90;;;12.00;99.90;;;;;;5063429;28;20074;-77
2022/11/25 09:24:56;;;;;;;1999.90;999.90;;;12.00;99.90;;;;;;5065659;28;20033;-76
2022/11/25 09:27:22;;;;;;;1999.90;999.90;;;11.90;99.90;;;;;;5053897;28;20100;-78
2022/11/25 09:29:47;;;;;;;1999.90;999.90;;;11.80;99.90;;;;;;5068652;28;20432;-76
2022/11/25 09:32:13;;;;;;;1999.90;999.90;;;11.70;99.90;;;;;;5056782;28;20025;-77
2022/11/25 09:34:39;;;;;;;1999.90;999.90;;;11.70;99.90;;;;;;5059409;28;20415;-77
2022/11/25 09:37:04;;;;;;;1999.90;999.90;;;11.60;99.90;;;;;;5067580;28;20502;-77
2022/11/25 09:39:31;;;;;;;1999.90;999.90;;;11.60;99.90;;;;;;5062356;28;20496;-77
2022/11/25 09:48:24;;;;;;;1999.90;999.90;;;11.80;99.90;;;;;;5070665;28;20047;-77
2022/11/25 09:51:08;;;;;;;1999.90;999.90;;;11.90;99.90;;;;;;5100647;28;20112;-77
2022/11/25 09:54:02;;;;;;;1999.90;999.90;;;12.00;99.90;;;;;;5066622;28;20639;-77
2022/11/25 09:56:49;;;;;;;1999.90;999.90;;;12.00;99.90;;;;;;5065574;28;20487;-77
2022/11/25 10:00:09;;;;;;;1999.90;999.90;;;12.20;99.90;;;;;;5071360;28;20102;-77
2022/11/25 10:03:04;;;;;;;1999.90;999.90;;;12.40;99.90;;;;;;5060305;28;20433;-77
2022/11/25 10:06:09;;;;;;;1999.90;999.90;;;12.60;99.90;;;;;;5073511;28;20040;-77
2022/11/25 10:09:00;;;;;;;1999.90;999.90;;;12.80;99.90;;;;;;5034376;28;20043;-77
2022/11/25 10:11:45;;;;;;;1999.90;999.90;;;13.00;99.90;;;;;;5056432;28;20028;-78
2022/11/25 10:14:30;;;;;;;1999.90;999.90;;;13.00;99.90;;;;;;5072252;28;20487;-77
2022/11/25 10:17:09;;;;;;;1999.90;999.90;;;13.00;99.90;;;;;;5081777;28;20070;-76
2022/11/25 10:20:09;;;;;;;1999.90;999.90;;;13.00;99.90;;;;;;5069184;28;20041;-77
2022/11/25 10:22:47;;;;;;;1999.90;999.90;;;13.40;99.90;;;;;;5064443;28;20074;-78
2022/11/25 10:25:20;;;;;;;1999.90;999.90;;;13.50;99.90;;;;;;5057279;28;20029;-78
2022/11/25 10:28:07;;;;;;;1999.90;999.90;;;13.40;99.90;;;;;;5071356;28;20035;-78
2022/11/25 10:30:44;;;;;;;1999.90;999.90;;;13.00;99.90;;;;;;5063864;28;20040;-77
2022/11/25 10:33:23;;;;;;;1999.90;999.90;;;12.80;99.90;;;;;;5061602;28;20047;-79
2022/11/25 10:36:09;;;;;;;1999.90;999.90;;;12.40;99.90;;;;;;5065928;28;20032;-77
2022/11/25 10:39:04;;;;;;;1999.90;999.90;;;12.10;99.90;;;;;;5063956;28;20024;-79
2022/11/25 10:41:43;;;;;;;1999.90;999.90;;;11.80;99.90;;;;;;5054345;28;20029;-78
2022/11/25 10:44:23;;;;;;;1999.90;999.90;;;11.70;99.90;;;;;;5063900;28;20025;-79
2022/11/25 10:47:24;;;;;;;1999.90;999.90;;;11.70;99.90;;;;;;5064474;28;20085;-77
2022/11/25 10:50:02;;;;;;;1999.90;999.90;;;11.60;99.90;;;;;;5081326;28;20016;-77
2022/11/25 10:52:37;;;;;;;1999.90;999.90;;;11.50;99.90;;;;;;5074868;28;20058;-79
2022/11/25 10:55:19;;;;;;;1999.90;999.90;;;11.50;99.90;;;;;;5068781;28;20028;-77
2022/11/25 10:57:45;;;;;;;1999.90;999.90;;;11.40;99.90;;;;;;5059606;28;20482;-77
2022/11/25 11:00:23;;;;;;;1999.90;999.90;;;11.40;99.90;;;;;;5064823;28;20024;-78
2022/11/25 11:02:49;;;;;;;1999.90;999.90;;;11.30;99.90;;;;;;5058807;28;20408;-76
2022/11/25 11:05:22;;;;;;;1999.90;999.90;;;11.40;99.90;;;;;;5068819;28;20028;-77
2022/11/25 11:08:17;;;;;;;1999.90;999.90;;;11.70;99.90;;;;;;5064100;28;20035;-77
2022/11/25 11:10:43;;;;;;;1999.90;999.90;;;12.10;99.90;;;;;;5069226;28;20123;-77
2022/11/25 11:13:38;;;;;;;1999.90;999.90;;;12.40;99.90;;;;;;5063476;28;20532;-77
2022/11/25 11:16:32;;;;;;;1999.90;999.90;;;12.60;99.90;;;;;;5061893;28;20131;-79
2022/11/25 11:18:58;;;;;;;1999.90;999.90;;;12.80;99.90;;;;;;5059421;28;20016;-79
2022/11/25 11:21:36;;;;;;;1999.90;999.90;;;13.00;99.90;;;;;;5063386;28;20032;-81
2022/11/25 11:24:29;;;;;;;1999.90;999.90;;;13.10;99.90;;;;;;5070027;28;20032;-81
2022/11/25 11:27:21;;;;;;;1999.90;999.90;;;13.00;99.90;;;;;;5088784;27;20044;-78
2022/11/25 11:29:47;;;;;;;1999.90;999.90;;;13.00;99.90;;;;;;5060491;28;20097;-79
2022/11/25 11:32:23;;;;;;;1999.90;999.90;;;12.80;99.90;;;;;;5064869;28;20032;-79
2022/11/25 11:34:56;;;;;;;1999.90;999.90;;;12.60;99.90;;;;;;5053846;28;20024;-79
2022/11/25 11:37:41;;;;;;;1999.90;999.90;;;12.80;99.90;;;;;;5066999;28;20031;-77
2022/11/25 11:40:45;;;;;;;1999.90;999.90;;;13.10;99.90;;;;;;5074532;28;20408;-78
2022/11/25 11:43:25;;;;;;;1999.90;999.90;;;13.50;99.90;;;;;;5012892;28;20038;-81
2022/11/25 11:46:10;;;;;;;1999.90;999.90;;;13.80;99.90;;;;;;4986459;28;20025;-79
2022/11/25 11:48:48;;;;;;;1999.90;999.90;;;14.00;99.90;;;;;;4986906;28;20042;-79
2022/11/25 11:51:22;;;;;;;1999.90;999.90;;;14.10;99.90;;;;;;4998227;28;20073;-79
2022/11/25 11:54:11;;;;;;;1999.90;999.90;;;13.90;99.90;;;;;;5021108;28;20041;-79
2022/11/25 11:56:49;;;;;;;1999.90;999.90;;;13.90;99.90;;;;;;5021484;28;20030;-80
2022/11/25 11:59:14;;;;;;;1999.90;999.90;;;13.80;99.90;;;;;;4999560;28;20033;-80
2022/11/25 12:01:46;;;;;;;1999.90;999.90;;;13.80;99.90;;;;;;5000970;28;20037;-78
2022/11/25 12:04:37;;;;;;;1999.90;999.90;;;13.90;99.90;;;;;;4993989;28;20053;-79
2022/11/25 12:07:21;;;;;;;1999.90;999.90;;;14.00;99.90;;;;;;5013330;28;20184;-78
2022/11/25 12:09:57;;;;;;;1999.90;999.90;;;14.00;99.90;;;;;;5007621;28;20042;-79
2022/11/25 12:12:32;;;;;;;1999.90;999.90;;;14.20;99.90;;;;;;5013071;28;20315;-79
2022/11/25 12:15:27;;;;;;;1999.90;999.90;;;14.40;99.90;;;;;;5064970;28;20138;-78
2022/11/25 12:17:58;;;;;;;1999.90;999.90;;;14.50;99.90;;;;;;5060694;28;20407;-78
2022/11/25 12:20:41;;;;;;;1999.90;999.90;;;14.70;99.90;;;;;;5067950;28;20032;-80
2022/11/25 12:23:29;;;;;;;1999.90;999.90;;;14.80;99.90;;;;;;5071238;28;20035;-79
2022/11/25 12:26:01;;;;;;;1999.90;999.90;;;15.10;99.90;;;;;;5072776;28;20120;-78
2022/11/25 12:28:39;;;;;;;1999.90;999.90;;;15.20;99.90;;;;;;5069617;28;20028;-78
2022/11/25 12:31:17;;;;;;;1999.90;999.90;;;15.30;99.90;;;;;;5084819;28;20043;-78
2022/11/25 12:33:49;;;;;;;1999.90;999.90;;;15.40;99.90;;;;;;5088169;28;20032;-79
2022/11/25 12:36:19;;;;;;;1999.90;999.90;;;15.20;99.90;;;;;;5089650;28;20482;-79
2022/11/25 12:38:49;;;;;;;1999.90;999.90;;;15.40;99.90;;;;;;5089597;28;20095;-79
2022/11/25 12:41:21;;;;;;;1999.90;999.90;;;15.70;99.90;;;;;;5077671;28;20059;-79
2022/11/25 12:44:10;;;;;;;1999.90;999.90;;;15.80;99.90;;;;;;5063772;28;20021;-78